sensor_id;sensor_type;location;lat;lon;timestamp;P1;durP1;ratioP1;P2;durP2;ratioP2
48767;SDS011;34933;40.968;14.538;2022-08-19T00:01:20;25.65;;;6.43;;
48767;SDS011;34933;40.968;14.538;2022-08-19T00:04:07;24.70;;;5.93;;
48767;SDS011;34933;40.968;14.538;2022-08-19T00:06:53;35.45;;;7.50;;
48767;SDS011;34933;40.968;14.538;2022-08-19T00:09:39;29.00;;;7.53;;
48767;SDS011;34933;40.968;14.538;2022-08-19T00:12:24;25.40;;;6.88;;
48767;SDS011;34933;40.968;14.538;2022-08-19T00:15:10;40.80;;;8.35;;
48767;SDS011;34933;40.968;14.538;2022-08-19T00:17:56;33.47;;;7.00;;
48767;SDS011;34933;40.968;14.538;2022-08-19T00:20:41;24.90;;;5.88;;
48767;SDS011;34933;40.968;14.538;2022-08-19T00:23:26;28.33;;;6.78;;
48767;SDS011;34933;40.968;14.538;2022-08-19T00:26:11;25.10;;;5.43;;
48767;SDS011;34933;40.968;14.538;2022-08-19T00:28:56;25.40;;;6.32;;
48767;SDS011;34933;40.968;14.538;2022-08-19T00:31:40;25.92;;;6.40;;
48767;SDS011;34933;40.968;14.538;2022-08-19T00:34:26;35.20;;;7.20;;
48767;SDS011;34933;40.968;14.538;2022-08-19T00:37:11;30.33;;;7.68;;
48767;SDS011;34933;40.968;14.538;2022-08-19T00:39:56;34.08;;;7.60;;
48767;SDS011;34933;40.968;14.538;2022-08-19T00:42:41;21.35;;;7.30;;
48767;SDS011;34933;40.968;14.538;2022-08-19T00:45:27;31.75;;;7.20;;
48767;SDS011;34933;40.968;14.538;2022-08-19T00:48:16;28.38;;;6.97;;
48767;SDS011;34933;40.968;14.538;2022-08-19T00:51:01;32.05;;;6.97;;
48767;SDS011;34933;40.968;14.538;2022-08-19T00:53:47;25.98;;;6.57;;
48767;SDS011;34933;40.968;14.538;2022-08-19T00:56:31;38.75;;;8.10;;
48767;SDS011;34933;40.968;14.538;2022-08-19T00:59:17;34.92;;;6.75;;
48767;SDS011;34933;40.968;14.538;2022-08-19T01:02:03;31.30;;;6.90;;
48767;SDS011;34933;40.968;14.538;2022-08-19T01:04:47;26.00;;;7.38;;
48767;SDS011;34933;40.968;14.538;2022-08-19T01:07:32;34.60;;;6.38;;
48767;SDS011;34933;40.968;14.538;2022-08-19T01:10:19;25.75;;;6.75;;
48767;SDS011;34933;40.968;14.538;2022-08-19T01:13:06;26.85;;;6.88;;
48767;SDS011;34933;40.968;14.538;2022-08-19T01:15:52;27.83;;;6.03;;
48767;SDS011;34933;40.968;14.538;2022-08-19T01:18:41;26.23;;;6.68;;
48767;SDS011;34933;40.968;14.538;2022-08-19T01:21:34;25.77;;;6.72;;
48767;SDS011;34933;40.968;14.538;2022-08-19T01:24:23;23.23;;;6.40;;
48767;SDS011;34933;40.968;14.538;2022-08-19T01:27:08;27.45;;;5.90;;
48767;SDS011;34933;40.968;14.538;2022-08-19T01:29:53;28.00;;;7.43;;
48767;SDS011;34933;40.968;14.538;2022-08-19T01:32:38;29.67;;;6.55;;
48767;SDS011;34933;40.968;14.538;2022-08-19T01:35:23;33.83;;;6.97;;
48767;SDS011;34933;40.968;14.538;2022-08-19T01:38:10;32.92;;;7.53;;
48767;SDS011;34933;40.968;14.538;2022-08-19T01:41:03;38.25;;;6.88;;
48767;SDS011;34933;40.968;14.538;2022-08-19T01:43:48;32.50;;;7.13;;
48767;SDS011;34933;40.968;14.538;2022-08-19T01:46:34;26.92;;;6.90;;
48767;SDS011;34933;40.968;14.538;2022-08-19T01:49:20;23.73;;;6.30;;
48767;SDS011;34933;40.968;14.538;2022-08-19T01:52:06;29.17;;;5.95;;
48767;SDS011;34933;40.968;14.538;2022-08-19T01:54:50;30.05;;;6.03;;
48767;SDS011;34933;40.968;14.538;2022-08-19T01:57:35;28.60;;;6.72;;
48767;SDS011;34933;40.968;14.538;2022-08-19T02:00:21;39.33;;;6.25;;
48767;SDS011;34933;40.968;14.538;2022-08-19T02:03:07;31.70;;;7.10;;
48767;SDS011;34933;40.968;14.538;2022-08-19T02:05:54;30.20;;;7.20;;
48767;SDS011;34933;40.968;14.538;2022-08-19T02:08:41;29.90;;;6.97;;
48767;SDS011;34933;40.968;14.538;2022-08-19T02:11:26;22.02;;;6.60;;
48767;SDS011;34933;40.968;14.538;2022-08-19T02:14:16;27.25;;;6.45;;
48767;SDS011;34933;40.968;14.538;2022-08-19T02:17:00;25.00;;;6.25;;
48767;SDS011;34933;40.968;14.538;2022-08-19T02:19:45;30.67;;;5.95;;
48767;SDS011;34933;40.968;14.538;2022-08-19T02:22:31;28.55;;;6.90;;
48767;SDS011;34933;40.968;14.538;2022-08-19T02:28:28;26.77;;;7.03;;
48767;SDS011;34933;40.968;14.538;2022-08-19T02:31:15;30.38;;;6.53;;
48767;SDS011;34933;40.968;14.538;2022-08-19T02:34:03;25.58;;;5.80;;
48767;SDS011;34933;40.968;14.538;2022-08-19T02:36:47;27.80;;;6.90;;
48767;SDS011;34933;40.968;14.538;2022-08-19T02:39:32;33.28;;;7.28;;
48767;SDS011;34933;40.968;14.538;2022-08-19T02:42:16;26.83;;;6.60;;
48767;SDS011;34933;40.968;14.538;2022-08-19T02:45:01;38.72;;;7.32;;
48767;SDS011;34933;40.968;14.538;2022-08-19T02:47:45;30.27;;;7.70;;
48767;SDS011;34933;40.968;14.538;2022-08-19T02:50:31;40.60;;;8.98;;
48767;SDS011;34933;40.968;14.538;2022-08-19T02:53:16;38.60;;;8.55;;
48767;SDS011;34933;40.968;14.538;2022-08-19T02:56:01;36.28;;;8.63;;
48767;SDS011;34933;40.968;14.538;2022-08-19T02:58:50;32.22;;;9.10;;
48767;SDS011;34933;40.968;14.538;2022-08-19T03:01:35;36.45;;;9.52;;
48767;SDS011;34933;40.968;14.538;2022-08-19T03:04:19;28.92;;;7.97;;
48767;SDS011;34933;40.968;14.538;2022-08-19T03:07:04;34.53;;;9.35;;
48767;SDS011;34933;40.968;14.538;2022-08-19T03:09:49;35.75;;;8.85;;
48767;SDS011;34933;40.968;14.538;2022-08-19T03:12:37;38.50;;;9.38;;
48767;SDS011;34933;40.968;14.538;2022-08-19T03:15:22;35.88;;;9.23;;
48767;SDS011;34933;40.968;14.538;2022-08-19T03:18:07;33.88;;;8.90;;
48767;SDS011;34933;40.968;14.538;2022-08-19T03:20:52;27.73;;;8.30;;
48767;SDS011;34933;40.968;14.538;2022-08-19T03:23:38;39.97;;;8.82;;
48767;SDS011;34933;40.968;14.538;2022-08-19T03:26:23;31.08;;;9.45;;
48767;SDS011;34933;40.968;14.538;2022-08-19T03:29:08;38.38;;;10.68;;
48767;SDS011;34933;40.968;14.538;2022-08-19T03:31:54;44.05;;;9.50;;
48767;SDS011;34933;40.968;14.538;2022-08-19T03:34:39;34.03;;;9.88;;
48767;SDS011;34933;40.968;14.538;2022-08-19T03:37:24;29.75;;;8.77;;
48767;SDS011;34933;40.968;14.538;2022-08-19T03:40:09;27.38;;;9.93;;
48767;SDS011;34933;40.968;14.538;2022-08-19T03:42:54;30.35;;;9.05;;
48767;SDS011;34933;40.968;14.538;2022-08-19T03:45:38;33.40;;;10.20;;
48767;SDS011;34933;40.968;14.538;2022-08-19T03:48:23;33.63;;;9.90;;
48767;SDS011;34933;40.968;14.538;2022-08-19T03:51:08;34.85;;;9.98;;
48767;SDS011;34933;40.968;14.538;2022-08-19T03:54:03;37.03;;;13.32;;
48767;SDS011;34933;40.968;14.538;2022-08-19T03:56:50;118.30;;;62.90;;
48767;SDS011;34933;40.968;14.538;2022-08-19T03:59:37;68.63;;;33.92;;
48767;SDS011;34933;40.968;14.538;2022-08-19T04:02:22;45.72;;;14.70;;
48767;SDS011;34933;40.968;14.538;2022-08-19T04:05:07;36.25;;;14.07;;
48767;SDS011;34933;40.968;14.538;2022-08-19T04:07:52;94.95;;;50.42;;
48767;SDS011;34933;40.968;14.538;2022-08-19T04:10:37;53.17;;;22.02;;
48767;SDS011;34933;40.968;14.538;2022-08-19T04:13:22;52.80;;;18.15;;
48767;SDS011;34933;40.968;14.538;2022-08-19T04:16:06;47.40;;;13.98;;
48767;SDS011;34933;40.968;14.538;2022-08-19T04:18:52;47.53;;;13.60;;
48767;SDS011;34933;40.968;14.538;2022-08-19T04:21:36;56.10;;;13.43;;
48767;SDS011;34933;40.968;14.538;2022-08-19T04:24:21;43.85;;;11.52;;
48767;SDS011;34933;40.968;14.538;2022-08-19T04:27:06;31.77;;;11.05;;
48767;SDS011;34933;40.968;14.538;2022-08-19T04:29:51;39.65;;;16.40;;
48767;SDS011;34933;40.968;14.538;2022-08-19T04:32:36;58.28;;;19.38;;
48767;SDS011;34933;40.968;14.538;2022-08-19T04:35:21;52.08;;;20.65;;
48767;SDS011;34933;40.968;14.538;2022-08-19T04:38:06;58.13;;;20.38;;
48767;SDS011;34933;40.968;14.538;2022-08-19T04:40:51;45.17;;;17.27;;
48767;SDS011;34933;40.968;14.538;2022-08-19T04:43:54;67.93;;;20.23;;
48767;SDS011;34933;40.968;14.538;2022-08-19T04:46:38;59.13;;;20.67;;
48767;SDS011;34933;40.968;14.538;2022-08-19T04:49:23;49.05;;;20.35;;
48767;SDS011;34933;40.968;14.538;2022-08-19T04:52:09;47.42;;;20.42;;
48767;SDS011;34933;40.968;14.538;2022-08-19T04:54:53;52.72;;;23.55;;
48767;SDS011;34933;40.968;14.538;2022-08-19T04:57:39;50.22;;;21.45;;
48767;SDS011;34933;40.968;14.538;2022-08-19T05:00:23;47.10;;;22.50;;
48767;SDS011;34933;40.968;14.538;2022-08-19T05:03:08;59.90;;;22.67;;
48767;SDS011;34933;40.968;14.538;2022-08-19T05:05:54;63.50;;;26.67;;
48767;SDS011;34933;40.968;14.538;2022-08-19T05:08:39;47.13;;;23.83;;
48767;SDS011;34933;40.968;14.538;2022-08-19T05:11:30;54.28;;;25.58;;
48767;SDS011;34933;40.968;14.538;2022-08-19T05:14:17;53.00;;;23.83;;
48767;SDS011;34933;40.968;14.538;2022-08-19T05:17:01;35.60;;;20.60;;
48767;SDS011;34933;40.968;14.538;2022-08-19T05:19:46;47.10;;;20.95;;
48767;SDS011;34933;40.968;14.538;2022-08-19T05:22:49;43.67;;;18.65;;
48767;SDS011;34933;40.968;14.538;2022-08-19T05:25:33;36.15;;;18.08;;
48767;SDS011;34933;40.968;14.538;2022-08-19T05:28:19;39.92;;;16.00;;
48767;SDS011;34933;40.968;14.538;2022-08-19T05:31:04;43.10;;;16.10;;
48767;SDS011;34933;40.968;14.538;2022-08-19T05:33:48;38.63;;;14.07;;
48767;SDS011;34933;40.968;14.538;2022-08-19T05:36:38;43.83;;;15.60;;
48767;SDS011;34933;40.968;14.538;2022-08-19T05:39:26;41.10;;;14.55;;
48767;SDS011;34933;40.968;14.538;2022-08-19T05:42:12;50.20;;;16.25;;
48767;SDS011;34933;40.968;14.538;2022-08-19T05:44:56;40.70;;;15.48;;
48767;SDS011;34933;40.968;14.538;2022-08-19T05:47:41;34.40;;;15.15;;
48767;SDS011;34933;40.968;14.538;2022-08-19T05:50:26;50.45;;;15.60;;
48767;SDS011;34933;40.968;14.538;2022-08-19T05:53:10;41.13;;;14.32;;
48767;SDS011;34933;40.968;14.538;2022-08-19T05:55:56;32.75;;;11.82;;
48767;SDS011;34933;40.968;14.538;2022-08-19T05:58:40;27.60;;;11.80;;
48767;SDS011;34933;40.968;14.538;2022-08-19T06:01:25;35.33;;;15.20;;
48767;SDS011;34933;40.968;14.538;2022-08-19T06:04:10;36.15;;;12.23;;
48767;SDS011;34933;40.968;14.538;2022-08-19T06:06:57;30.95;;;12.00;;
48767;SDS011;34933;40.968;14.538;2022-08-19T06:09:42;33.25;;;11.63;;
48767;SDS011;34933;40.968;14.538;2022-08-19T06:12:27;36.42;;;12.88;;
48767;SDS011;34933;40.968;14.538;2022-08-19T06:15:15;38.72;;;12.90;;
48767;SDS011;34933;40.968;14.538;2022-08-19T06:17:59;33.05;;;10.70;;
48767;SDS011;34933;40.968;14.538;2022-08-19T06:20:44;28.98;;;11.48;;
48767;SDS011;34933;40.968;14.538;2022-08-19T06:23:29;30.00;;;10.90;;
48767;SDS011;34933;40.968;14.538;2022-08-19T06:26:15;35.38;;;10.68;;
48767;SDS011;34933;40.968;14.538;2022-08-19T06:29:00;36.45;;;12.52;;
48767;SDS011;34933;40.968;14.538;2022-08-19T06:31:46;31.42;;;9.60;;
48767;SDS011;34933;40.968;14.538;2022-08-19T06:34:33;33.78;;;10.10;;
48767;SDS011;34933;40.968;14.538;2022-08-19T06:37:18;33.88;;;10.50;;
48767;SDS011;34933;40.968;14.538;2022-08-19T06:40:05;32.67;;;10.05;;
48767;SDS011;34933;40.968;14.538;2022-08-19T06:42:52;35.47;;;10.15;;
48767;SDS011;34933;40.968;14.538;2022-08-19T06:45:37;39.03;;;11.10;;
48767;SDS011;34933;40.968;14.538;2022-08-19T06:48:22;39.45;;;12.45;;
48767;SDS011;34933;40.968;14.538;2022-08-19T06:51:06;33.63;;;12.85;;
48767;SDS011;34933;40.968;14.538;2022-08-19T06:53:52;44.13;;;14.75;;
48767;SDS011;34933;40.968;14.538;2022-08-19T06:56:37;41.92;;;14.52;;
48767;SDS011;34933;40.968;14.538;2022-08-19T06:59:23;32.95;;;13.50;;
48767;SDS011;34933;40.968;14.538;2022-08-19T07:02:11;39.85;;;15.80;;
48767;SDS011;34933;40.968;14.538;2022-08-19T07:04:55;32.63;;;12.70;;
48767;SDS011;34933;40.968;14.538;2022-08-19T07:07:47;36.85;;;17.38;;
48767;SDS011;34933;40.968;14.538;2022-08-19T07:10:32;31.38;;;11.30;;
48767;SDS011;34933;40.968;14.538;2022-08-19T07:13:18;27.65;;;7.57;;
48767;SDS011;34933;40.968;14.538;2022-08-19T07:16:07;28.58;;;7.97;;
48767;SDS011;34933;40.968;14.538;2022-08-19T07:18:52;28.75;;;8.13;;
48767;SDS011;34933;40.968;14.538;2022-08-19T07:21:38;29.95;;;9.48;;
48767;SDS011;34933;40.968;14.538;2022-08-19T07:24:24;27.02;;;6.93;;
48767;SDS011;34933;40.968;14.538;2022-08-19T07:27:09;22.08;;;6.57;;
48767;SDS011;34933;40.968;14.538;2022-08-19T07:29:54;18.55;;;5.15;;
48767;SDS011;34933;40.968;14.538;2022-08-19T07:32:39;23.38;;;7.10;;
48767;SDS011;34933;40.968;14.538;2022-08-19T07:35:24;22.73;;;6.82;;
48767;SDS011;34933;40.968;14.538;2022-08-19T07:38:08;24.55;;;7.60;;
48767;SDS011;34933;40.968;14.538;2022-08-19T07:40:53;23.05;;;7.25;;
48767;SDS011;34933;40.968;14.538;2022-08-19T07:43:38;19.48;;;7.85;;
48767;SDS011;34933;40.968;14.538;2022-08-19T07:46:23;25.60;;;7.45;;
48767;SDS011;34933;40.968;14.538;2022-08-19T07:49:08;15.90;;;4.90;;
48767;SDS011;34933;40.968;14.538;2022-08-19T07:51:59;28.13;;;5.00;;
48767;SDS011;34933;40.968;14.538;2022-08-19T07:54:46;15.02;;;4.20;;
48767;SDS011;34933;40.968;14.538;2022-08-19T07:57:31;18.42;;;4.78;;
48767;SDS011;34933;40.968;14.538;2022-08-19T08:00:16;18.27;;;3.67;;
48767;SDS011;34933;40.968;14.538;2022-08-19T08:03:00;13.77;;;3.60;;
48767;SDS011;34933;40.968;14.538;2022-08-19T08:05:45;16.48;;;3.70;;
48767;SDS011;34933;40.968;14.538;2022-08-19T08:08:49;13.30;;;4.32;;
48767;SDS011;34933;40.968;14.538;2022-08-19T08:12:15;18.33;;;5.35;;
48767;SDS011;34933;40.968;14.538;2022-08-19T08:15:11;15.60;;;6.05;;
48767;SDS011;34933;40.968;14.538;2022-08-19T08:18:00;17.45;;;5.18;;
48767;SDS011;34933;40.968;14.538;2022-08-19T08:20:45;10.70;;;4.28;;
48767;SDS011;34933;40.968;14.538;2022-08-19T08:23:30;14.88;;;4.13;;
48767;SDS011;34933;40.968;14.538;2022-08-19T08:26:15;17.38;;;4.38;;
48767;SDS011;34933;40.968;14.538;2022-08-19T08:29:00;12.13;;;4.60;;
48767;SDS011;34933;40.968;14.538;2022-08-19T08:31:45;17.95;;;4.30;;
48767;SDS011;34933;40.968;14.538;2022-08-19T08:34:30;13.98;;;4.55;;
48767;SDS011;34933;40.968;14.538;2022-08-19T08:37:15;12.43;;;4.47;;
48767;SDS011;34933;40.968;14.538;2022-08-19T08:40:03;12.93;;;4.55;;
48767;SDS011;34933;40.968;14.538;2022-08-19T08:43:00;20.27;;;4.95;;
48767;SDS011;34933;40.968;14.538;2022-08-19T08:47:10;12.48;;;4.60;;
48767;SDS011;34933;40.968;14.538;2022-08-19T08:49:51;14.05;;;4.10;;
48767;SDS011;34933;40.968;14.538;2022-08-19T08:52:46;11.18;;;4.00;;
48767;SDS011;34933;40.968;14.538;2022-08-19T08:55:35;17.67;;;4.20;;
48767;SDS011;34933;40.968;14.538;2022-08-19T08:58:28;16.25;;;3.67;;
48767;SDS011;34933;40.968;14.538;2022-08-19T09:01:26;14.32;;;4.40;;
48767;SDS011;34933;40.968;14.538;2022-08-19T09:04:11;12.30;;;3.90;;
48767;SDS011;34933;40.968;14.538;2022-08-19T09:09:50;7.75;;;4.07;;
48767;SDS011;34933;40.968;14.538;2022-08-19T09:19:01;7.38;;;3.33;;
48767;SDS011;34933;40.968;14.538;2022-08-19T09:21:47;11.57;;;3.60;;
48767;SDS011;34933;40.968;14.538;2022-08-19T09:24:33;8.57;;;3.40;;
48767;SDS011;34933;40.968;14.538;2022-08-19T09:27:20;16.27;;;3.70;;
48767;SDS011;34933;40.968;14.538;2022-08-19T09:30:08;17.45;;;4.88;;
48767;SDS011;34933;40.968;14.538;2022-08-19T09:33:05;12.38;;;3.97;;
48767;SDS011;34933;40.968;14.538;2022-08-19T09:36:00;10.85;;;3.60;;
48767;SDS011;34933;40.968;14.538;2022-08-19T09:38:51;11.80;;;3.78;;
48767;SDS011;34933;40.968;14.538;2022-08-19T09:41:36;19.08;;;3.72;;
48767;SDS011;34933;40.968;14.538;2022-08-19T09:44:21;7.63;;;3.38;;
48767;SDS011;34933;40.968;14.538;2022-08-19T09:47:06;10.57;;;3.53;;
48767;SDS011;34933;40.968;14.538;2022-08-19T09:49:51;13.82;;;3.38;;
48767;SDS011;34933;40.968;14.538;2022-08-19T09:52:35;9.85;;;3.30;;
48767;SDS011;34933;40.968;14.538;2022-08-19T09:55:20;10.10;;;3.22;;
48767;SDS011;34933;40.968;14.538;2022-08-19T09:58:05;12.55;;;3.05;;
48767;SDS011;34933;40.968;14.538;2022-08-19T10:00:50;11.90;;;2.72;;
48767;SDS011;34933;40.968;14.538;2022-08-19T10:03:35;8.50;;;3.25;;
48767;SDS011;34933;40.968;14.538;2022-08-19T10:06:21;9.52;;;3.08;;
48767;SDS011;34933;40.968;14.538;2022-08-19T10:09:13;9.48;;;2.63;;
48767;SDS011;34933;40.968;14.538;2022-08-19T10:12:01;17.48;;;3.10;;
48767;SDS011;34933;40.968;14.538;2022-08-19T10:14:47;12.55;;;3.28;;
48767;SDS011;34933;40.968;14.538;2022-08-19T10:17:32;8.10;;;3.45;;
48767;SDS011;34933;40.968;14.538;2022-08-19T10:20:19;8.48;;;2.38;;
48767;SDS011;34933;40.968;14.538;2022-08-19T10:23:03;9.32;;;4.10;;
48767;SDS011;34933;40.968;14.538;2022-08-19T10:25:48;9.25;;;3.20;;
48767;SDS011;34933;40.968;14.538;2022-08-19T10:28:33;9.43;;;2.92;;
48767;SDS011;34933;40.968;14.538;2022-08-19T10:31:25;8.68;;;3.22;;
48767;SDS011;34933;40.968;14.538;2022-08-19T10:34:11;13.00;;;2.45;;
48767;SDS011;34933;40.968;14.538;2022-08-19T10:36:56;10.07;;;2.38;;
48767;SDS011;34933;40.968;14.538;2022-08-19T10:39:42;8.80;;;3.00;;
48767;SDS011;34933;40.968;14.538;2022-08-19T10:42:26;7.65;;;2.55;;
48767;SDS011;34933;40.968;14.538;2022-08-19T10:45:11;9.10;;;3.50;;
48767;SDS011;34933;40.968;14.538;2022-08-19T10:47:55;8.77;;;2.60;;
48767;SDS011;34933;40.968;14.538;2022-08-19T10:50:40;13.45;;;2.97;;
48767;SDS011;34933;40.968;14.538;2022-08-19T10:53:43;7.63;;;2.92;;
48767;SDS011;34933;40.968;14.538;2022-08-19T10:56:28;9.23;;;2.72;;
48767;SDS011;34933;40.968;14.538;2022-08-19T10:59:32;7.20;;;2.38;;
48767;SDS011;34933;40.968;14.538;2022-08-19T11:02:19;11.00;;;2.60;;
48767;SDS011;34933;40.968;14.538;2022-08-19T11:05:03;8.93;;;2.97;;
48767;SDS011;34933;40.968;14.538;2022-08-19T11:07:50;9.00;;;3.13;;
48767;SDS011;34933;40.968;14.538;2022-08-19T11:10:35;8.80;;;3.33;;
48767;SDS011;34933;40.968;14.538;2022-08-19T11:13:20;8.40;;;2.67;;
48767;SDS011;34933;40.968;14.538;2022-08-19T11:16:11;8.25;;;3.15;;
48767;SDS011;34933;40.968;14.538;2022-08-19T11:18:59;8.68;;;2.03;;
48767;SDS011;34933;40.968;14.538;2022-08-19T11:21:44;6.60;;;2.33;;
48767;SDS011;34933;40.968;14.538;2022-08-19T11:24:31;3.67;;;2.00;;
48767;SDS011;34933;40.968;14.538;2022-08-19T11:27:16;5.80;;;2.40;;
48767;SDS011;34933;40.968;14.538;2022-08-19T11:30:00;8.55;;;2.47;;
48767;SDS011;34933;40.968;14.538;2022-08-19T11:32:47;5.57;;;2.22;;
48767;SDS011;34933;40.968;14.538;2022-08-19T11:35:32;6.93;;;2.30;;
48767;SDS011;34933;40.968;14.538;2022-08-19T11:38:17;8.82;;;2.88;;
48767;SDS011;34933;40.968;14.538;2022-08-19T11:41:03;9.27;;;4.10;;
48767;SDS011;34933;40.968;14.538;2022-08-19T11:43:51;6.13;;;2.45;;
48767;SDS011;34933;40.968;14.538;2022-08-19T11:46:38;7.47;;;1.90;;
48767;SDS011;34933;40.968;14.538;2022-08-19T11:49:23;8.27;;;2.10;;
48767;SDS011;34933;40.968;14.538;2022-08-19T11:52:08;5.85;;;1.90;;
48767;SDS011;34933;40.968;14.538;2022-08-19T11:54:53;5.82;;;2.10;;
48767;SDS011;34933;40.968;14.538;2022-08-19T11:57:37;5.68;;;2.15;;
48767;SDS011;34933;40.968;14.538;2022-08-19T12:00:24;10.15;;;2.03;;
48767;SDS011;34933;40.968;14.538;2022-08-19T12:03:09;5.05;;;1.80;;
48767;SDS011;34933;40.968;14.538;2022-08-19T12:05:53;6.15;;;2.15;;
48767;SDS011;34933;40.968;14.538;2022-08-19T12:08:38;4.90;;;2.13;;
48767;SDS011;34933;40.968;14.538;2022-08-19T12:11:23;5.30;;;2.25;;
48767;SDS011;34933;40.968;14.538;2022-08-19T12:14:12;4.93;;;2.20;;
48767;SDS011;34933;40.968;14.538;2022-08-19T12:16:57;5.40;;;2.05;;
48767;SDS011;34933;40.968;14.538;2022-08-19T12:19:42;6.22;;;2.60;;
48767;SDS011;34933;40.968;14.538;2022-08-19T12:22:27;9.57;;;2.30;;
48767;SDS011;34933;40.968;14.538;2022-08-19T12:25:12;9.02;;;2.28;;
48767;SDS011;34933;40.968;14.538;2022-08-19T12:27:57;6.70;;;1.98;;
48767;SDS011;34933;40.968;14.538;2022-08-19T12:30:41;4.32;;;1.67;;
48767;SDS011;34933;40.968;14.538;2022-08-19T12:33:26;5.68;;;2.35;;
48767;SDS011;34933;40.968;14.538;2022-08-19T12:36:13;7.60;;;3.05;;
48767;SDS011;34933;40.968;14.538;2022-08-19T12:38:59;3.45;;;2.22;;
48767;SDS011;34933;40.968;14.538;2022-08-19T12:41:43;7.40;;;1.70;;
48767;SDS011;34933;40.968;14.538;2022-08-19T12:44:28;5.10;;;1.70;;
48767;SDS011;34933;40.968;14.538;2022-08-19T12:47:14;7.35;;;2.05;;
48767;SDS011;34933;40.968;14.538;2022-08-19T12:49:58;7.95;;;2.22;;
48767;SDS011;34933;40.968;14.538;2022-08-19T12:52:43;7.40;;;2.90;;
48767;SDS011;34933;40.968;14.538;2022-08-19T12:55:28;6.78;;;1.80;;
48767;SDS011;34933;40.968;14.538;2022-08-19T12:58:12;5.53;;;1.88;;
48767;SDS011;34933;40.968;14.538;2022-08-19T13:00:57;8.13;;;2.03;;
48767;SDS011;34933;40.968;14.538;2022-08-19T13:03:42;6.93;;;1.90;;
48767;SDS011;34933;40.968;14.538;2022-08-19T13:06:28;3.85;;;1.90;;
48767;SDS011;34933;40.968;14.538;2022-08-19T13:09:12;10.95;;;2.63;;
48767;SDS011;34933;40.968;14.538;2022-08-19T13:11:57;7.32;;;2.08;;
48767;SDS011;34933;40.968;14.538;2022-08-19T13:14:42;6.38;;;2.35;;
48767;SDS011;34933;40.968;14.538;2022-08-19T13:17:26;8.38;;;2.40;;
48767;SDS011;34933;40.968;14.538;2022-08-19T13:20:11;5.13;;;2.42;;
48767;SDS011;34933;40.968;14.538;2022-08-19T13:22:55;7.80;;;2.47;;
48767;SDS011;34933;40.968;14.538;2022-08-19T13:25:41;5.53;;;2.30;;
48767;SDS011;34933;40.968;14.538;2022-08-19T13:28:25;7.40;;;2.50;;
48767;SDS011;34933;40.968;14.538;2022-08-19T13:31:10;9.88;;;2.83;;
48767;SDS011;34933;40.968;14.538;2022-08-19T13:34:13;3.95;;;2.75;;
48767;SDS011;34933;40.968;14.538;2022-08-19T13:36:59;6.38;;;2.20;;
48767;SDS011;34933;40.968;14.538;2022-08-19T13:39:48;6.72;;;2.90;;
48767;SDS011;34933;40.968;14.538;2022-08-19T13:42:32;10.55;;;3.00;;
48767;SDS011;34933;40.968;14.538;2022-08-19T13:45:18;6.72;;;2.55;;
48767;SDS011;34933;40.968;14.538;2022-08-19T13:48:05;6.35;;;2.60;;
48767;SDS011;34933;40.968;14.538;2022-08-19T13:50:52;7.28;;;4.30;;
48767;SDS011;34933;40.968;14.538;2022-08-19T13:53:38;7.55;;;3.55;;
48767;SDS011;34933;40.968;14.538;2022-08-19T13:56:25;6.85;;;2.50;;
48767;SDS011;34933;40.968;14.538;2022-08-19T13:59:10;5.68;;;2.70;;
48767;SDS011;34933;40.968;14.538;2022-08-19T14:01:57;4.68;;;2.47;;
48767;SDS011;34933;40.968;14.538;2022-08-19T14:04:43;7.72;;;2.45;;
48767;SDS011;34933;40.968;14.538;2022-08-19T14:07:27;7.07;;;2.58;;
48767;SDS011;34933;40.968;14.538;2022-08-19T14:10:12;8.38;;;4.95;;
48767;SDS011;34933;40.968;14.538;2022-08-19T14:12:59;7.45;;;3.33;;
48767;SDS011;34933;40.968;14.538;2022-08-19T14:15:46;6.40;;;3.35;;
48767;SDS011;34933;40.968;14.538;2022-08-19T14:18:31;7.45;;;2.25;;
48767;SDS011;34933;40.968;14.538;2022-08-19T14:21:17;5.38;;;2.38;;
48767;SDS011;34933;40.968;14.538;2022-08-19T14:24:04;5.82;;;2.17;;
48767;SDS011;34933;40.968;14.538;2022-08-19T14:26:48;5.15;;;2.40;;
48767;SDS011;34933;40.968;14.538;2022-08-19T14:29:33;5.82;;;2.97;;
48767;SDS011;34933;40.968;14.538;2022-08-19T14:32:18;6.30;;;2.25;;
48767;SDS011;34933;40.968;14.538;2022-08-19T14:35:03;6.97;;;1.92;;
48767;SDS011;34933;40.968;14.538;2022-08-19T14:37:51;6.70;;;2.20;;
48767;SDS011;34933;40.968;14.538;2022-08-19T14:40:38;8.30;;;2.17;;
48767;SDS011;34933;40.968;14.538;2022-08-19T14:43:25;4.70;;;2.35;;
48767;SDS011;34933;40.968;14.538;2022-08-19T14:46:10;5.65;;;2.25;;
48767;SDS011;34933;40.968;14.538;2022-08-19T14:48:56;7.75;;;2.42;;
48767;SDS011;34933;40.968;14.538;2022-08-19T14:51:41;6.82;;;2.40;;
48767;SDS011;34933;40.968;14.538;2022-08-19T14:54:25;4.63;;;2.05;;
48767;SDS011;34933;40.968;14.538;2022-08-19T14:57:13;9.77;;;3.55;;
48767;SDS011;34933;40.968;14.538;2022-08-19T14:59:59;9.70;;;3.78;;
48767;SDS011;34933;40.968;14.538;2022-08-19T15:02:44;7.15;;;3.00;;
48767;SDS011;34933;40.968;14.538;2022-08-19T15:05:28;6.50;;;2.97;;
48767;SDS011;34933;40.968;14.538;2022-08-19T15:08:13;8.63;;;3.20;;
48767;SDS011;34933;40.968;14.538;2022-08-19T15:10:58;13.50;;;3.13;;
48767;SDS011;34933;40.968;14.538;2022-08-19T15:13:43;7.40;;;3.33;;
48767;SDS011;34933;40.968;14.538;2022-08-19T15:16:30;6.88;;;2.85;;
48767;SDS011;34933;40.968;14.538;2022-08-19T15:19:14;7.72;;;2.78;;
48767;SDS011;34933;40.968;14.538;2022-08-19T15:21:59;7.63;;;2.25;;
48767;SDS011;34933;40.968;14.538;2022-08-19T15:24:44;8.73;;;2.95;;
48767;SDS011;34933;40.968;14.538;2022-08-19T15:27:29;5.93;;;2.47;;
48767;SDS011;34933;40.968;14.538;2022-08-19T15:30:19;9.50;;;3.10;;
48767;SDS011;34933;40.968;14.538;2022-08-19T15:33:07;7.13;;;3.20;;
48767;SDS011;34933;40.968;14.538;2022-08-19T15:35:53;5.15;;;2.88;;
48767;SDS011;34933;40.968;14.538;2022-08-19T15:38:38;5.57;;;2.78;;
48767;SDS011;34933;40.968;14.538;2022-08-19T15:41:26;9.93;;;2.92;;
48767;SDS011;34933;40.968;14.538;2022-08-19T15:44:15;5.80;;;2.70;;
48767;SDS011;34933;40.968;14.538;2022-08-19T15:47:01;5.80;;;3.67;;
48767;SDS011;34933;40.968;14.538;2022-08-19T15:49:46;9.65;;;3.28;;
48767;SDS011;34933;40.968;14.538;2022-08-19T15:52:30;6.80;;;3.50;;
48767;SDS011;34933;40.968;14.538;2022-08-19T15:55:21;7.90;;;3.38;;
48767;SDS011;34933;40.968;14.538;2022-08-19T15:58:09;5.05;;;3.58;;
48767;SDS011;34933;40.968;14.538;2022-08-19T16:01:14;10.73;;;3.90;;
48767;SDS011;34933;40.968;14.538;2022-08-19T16:04:31;6.65;;;2.97;;
48767;SDS011;34933;40.968;14.538;2022-08-19T16:07:34;10.05;;;2.92;;
48767;SDS011;34933;40.968;14.538;2022-08-19T16:10:18;10.77;;;4.13;;
48767;SDS011;34933;40.968;14.538;2022-08-19T16:13:04;9.05;;;4.03;;
48767;SDS011;34933;40.968;14.538;2022-08-19T16:15:48;15.15;;;5.35;;
48767;SDS011;34933;40.968;14.538;2022-08-19T16:18:33;14.38;;;5.53;;
48767;SDS011;34933;40.968;14.538;2022-08-19T16:21:21;17.13;;;6.32;;
48767;SDS011;34933;40.968;14.538;2022-08-19T16:24:09;17.27;;;5.72;;
48767;SDS011;34933;40.968;14.538;2022-08-19T16:26:55;14.45;;;6.90;;
48767;SDS011;34933;40.968;14.538;2022-08-19T16:29:40;11.00;;;5.68;;